Farmville, Virginia
Current Conditions -  °F | °C
As of 3:15 AM on Monday 24 Nov 2014 (Local Time) from KFVX Reporting Station
Overcast Overcast  
Wind Chill: 65°   Ceiling: 2600
Heat Index: 65°   Visibility: 10mi
Dew Point: 65°   Wind: 18mph
Humidity: 100%   Direction: 170°S
Pressure: 29.68"   Gusts: 24mph
Location:  37.3°N, 78.39°W
Report Text: KFVX 240815Z AUTO 17016G21KT 10SM SCT017 OVC026 19/19 A2968 RMK AO2 T01860186
Loading
Personal Weather Stations






























Interactive Weather Map New forecast layout! Learn more

10-Day Weather Forecast

Advertisements
Track Severe Weather on mobile